Time;durP1;ratioP1;P1;durP2;ratioP2;P2;SDS_P1;SDS_P2;PMS_P1;PMS_P2;Temp;Humidity;BMP_temperature;BMP_pressure;BME280_temperature;BME280_humidity;BME280_pressure;Samples;Min_cycle;Max_cycle;Signal;HPM_P1;HPM_P2
2022/10/12 00:01:26;;;;;;;8.73;2.70;;;8.00;99.90;;;;;;5050214;28;20041;-56
2022/10/12 00:03:51;;;;;;;6.17;2.60;;;8.00;99.90;;;;;;5049557;28;20043;-56
2022/10/12 00:06:20;;;;;;;8.63;2.67;;;8.00;99.90;;;;;;5056416;28;20032;-56
2022/10/12 00:08:47;;;;;;;9.27;3.00;;;8.00;99.90;;;;;;5069984;28;20051;-55
2022/10/12 00:11:19;;;;;;;5.18;3.00;;;8.00;99.90;;;;;;5067730;28;20044;-56
2022/10/12 00:13:45;;;;;;;4.00;2.47;;;8.10;99.90;;;;;;5052032;28;20044;-54
2022/10/12 00:16:12;;;;;;;3.83;2.40;;;8.10;99.90;;;;;;5066972;28;20032;-54
2022/10/12 00:18:38;;;;;;;8.60;3.28;;;8.10;99.90;;;;;;5063545;28;20033;-56
2022/10/12 00:21:13;;;;;;;5.05;2.58;;;8.10;99.90;;;;;;5067716;28;20432;-55
2022/10/12 00:23:40;;;;;;;2.78;2.13;;;8.10;99.90;;;;;;5052491;28;20044;-53
2022/10/12 00:26:09;;;;;;;5.65;2.85;;;8.00;99.90;;;;;;5065240;28;20526;-56
2022/10/12 00:28:35;;;;;;;6.47;2.63;;;8.00;99.90;;;;;;5050035;28;20045;-56
2022/10/12 00:31:09;;;;;;;6.50;2.78;;;7.90;99.90;;;;;;5062541;28;20563;-55
2022/10/12 00:33:36;;;;;;;3.38;2.15;;;7.90;99.90;;;;;;5064162;28;20043;-53
2022/10/12 00:36:14;;;;;;;3.70;2.08;;;7.80;99.90;;;;;;5052699;28;20112;-53
2022/10/12 00:38:39;;;;;;;3.65;2.08;;;7.80;99.90;;;;;;5054349;28;20045;-56
2022/10/12 00:41:05;;;;;;;6.77;1.80;;;7.70;99.90;;;;;;5068023;28;20058;-57
2022/10/12 00:43:36;;;;;;;2.33;0.60;;;7.70;99.90;;;;;;5067492;28;20523;-55
2022/10/12 00:46:08;;;;;;;3.38;0.90;;;7.60;99.90;;;;;;5069297;28;20044;-53
2022/10/12 00:48:34;;;;;;;25.98;1.48;;;7.50;99.90;;;;;;5057054;28;20055;-54
2022/10/12 00:51:01;;;;;;;2.05;1.05;;;7.50;99.90;;;;;;5065485;28;20401;-54
2022/10/12 00:53:41;;;;;;;3.47;1.25;;;7.50;99.90;;;;;;5066123;28;20442;-56
2022/10/12 00:56:11;;;;;;;3.97;2.10;;;7.50;99.90;;;;;;5052430;28;20555;-53
2022/10/12 00:58:37;;;;;;;14.23;2.88;;;7.50;99.90;;;;;;5067240;28;20036;-55
2022/10/12 01:01:04;;;;;;;49.03;3.53;;;7.50;99.90;;;;;;5070897;28;20036;-54
2022/10/12 01:03:31;;;;;;;6.38;1.50;;;7.40;99.90;;;;;;5063733;28;20306;-54
2022/10/12 01:05:57;;;;;;;23.27;2.33;;;7.30;99.90;;;;;;5062924;28;20036;-55
2022/10/12 01:08:23;;;;;;;48.60;3.40;;;7.20;99.90;;;;;;5066791;28;20052;-55
2022/10/12 01:10:48;;;;;;;3.97;1.77;;;7.20;99.90;;;;;;5055302;28;20041;-56
2022/10/12 01:13:14;;;;;;;6.80;3.23;;;7.10;99.90;;;;;;5057074;28;20287;-55
2022/10/12 01:16:01;;;;;;;4.93;1.77;;;7.10;99.90;;;;;;5055126;28;20041;-53
2022/10/12 01:18:50;;;;;;;5.03;2.63;;;7.10;99.90;;;;;;5059391;28;20410;-53
2022/10/12 01:21:20;;;;;;;7.22;3.22;;;7.00;99.90;;;;;;5072689;28;20036;-55
2022/10/12 01:24:10;;;;;;;5.30;3.22;;;7.10;99.90;;;;;;5060933;28;20085;-55
2022/10/12 01:27:01;;;;;;;6.13;3.30;;;7.10;99.90;;;;;;5070013;28;20044;-56
2022/10/12 01:30:04;;;;;;;8.77;3.63;;;7.10;99.90;;;;;;5059387;28;20053;-56
2022/10/12 01:32:56;;;;;;;6.20;4.75;;;7.10;99.90;;;;;;5056983;28;20040;-53
2022/10/12 01:35:37;;;;;;;6.90;4.60;;;7.00;99.90;;;;;;5065898;28;20093;-54
2022/10/12 01:38:16;;;;;;;8.40;2.97;;;7.10;99.90;;;;;;5063757;28;20072;-55
2022/10/12 01:40:57;;;;;;;4.05;3.47;;;7.10;99.90;;;;;;5068571;28;20040;-55
2022/10/12 01:43:22;;;;;;;11.10;4.50;;;7.10;99.90;;;;;;5071879;28;20139;-53
2022/10/12 01:45:48;;;;;;;10.15;3.97;;;7.10;99.90;;;;;;5070661;28;20124;-53
2022/10/12 01:48:15;;;;;;;6.43;3.95;;;7.10;99.90;;;;;;5071610;28;20035;-56
2022/10/12 01:50:51;;;;;;;6.43;3.53;;;7.20;99.90;;;;;;5060147;28;20060;-53
2022/10/12 01:53:41;;;;;;;3.30;1.98;;;7.20;99.90;;;;;;5068569;28;20092;-55
2022/10/12 01:56:38;;;;;;;1.73;1.05;;;7.10;99.90;;;;;;5092364;28;20044;-56
2022/10/12 01:59:35;;;;;;;2.97;1.93;;;7.00;99.90;;;;;;5051133;28;20475;-56
2022/10/12 02:02:14;;;;;;;6.68;2.70;;;6.90;99.90;;;;;;5052072;28;20041;-54
2022/10/12 02:04:49;;;;;;;7.55;2.90;;;6.90;99.90;;;;;;5084035;28;20103;-56
2022/10/12 02:07:42;;;;;;;6.25;2.90;;;6.90;99.90;;;;;;5054231;28;20036;-56
2022/10/12 02:10:16;;;;;;;3.88;2.40;;;6.90;99.90;;;;;;5070448;28;20053;-54
2022/10/12 02:12:45;;;;;;;7.80;3.10;;;6.90;99.90;;;;;;5069772;28;20120;-56
2022/10/12 02:15:12;;;;;;;10.15;3.53;;;6.90;99.90;;;;;;5061373;28;20433;-53
2022/10/12 02:17:40;;;;;;;14.77;4.18;;;6.90;99.90;;;;;;5064968;28;20064;-56
2022/10/12 02:20:10;;;;;;;3.97;3.15;;;6.80;99.90;;;;;;5071713;28;20039;-55
2022/10/12 02:22:37;;;;;;;4.55;2.40;;;6.70;99.90;;;;;;5053315;28;20128;-57
2022/10/12 02:25:09;;;;;;;4.85;2.80;;;6.70;99.90;;;;;;5058369;28;20067;-56
2022/10/12 02:27:39;;;;;;;7.93;3.35;;;6.60;99.90;;;;;;5055270;28;20086;-55
2022/10/12 02:30:06;;;;;;;8.65;4.20;;;6.50;99.90;;;;;;5054741;28;20037;-56
2022/10/12 02:32:44;;;;;;;6.57;3.80;;;6.50;99.90;;;;;;5053035;28;20344;-55
2022/10/12 02:35:37;;;;;;;8.25;3.83;;;6.40;99.90;;;;;;5051921;28;20603;-55
2022/10/12 02:39:19;;;;;;;7.70;4.25;;;6.40;99.90;;;;;;5055534;28;20115;-56
2022/10/12 02:41:51;;;;;;;8.18;4.38;;;6.40;99.90;;;;;;4940413;29;20040;-54
2022/10/12 02:44:22;;;;;;;9.68;4.95;;;6.30;99.90;;;;;;4932295;29;20074;-56
2022/10/12 02:46:50;;;;;;;12.07;4.63;;;6.30;99.90;;;;;;4988244;28;20042;-55
2022/10/12 02:49:17;;;;;;;7.10;4.90;;;6.20;99.90;;;;;;4995337;28;20525;-54
2022/10/12 02:51:43;;;;;;;15.88;5.70;;;6.20;99.90;;;;;;4999380;28;20581;-56
2022/10/12 02:54:09;;;;;;;13.27;4.93;;;6.30;99.90;;;;;;5001045;28;20053;-54
2022/10/12 02:56:42;;;;;;;13.07;5.40;;;6.30;99.90;;;;;;4996589;28;20030;-55
2022/10/12 02:59:07;;;;;;;10.15;5.05;;;6.30;99.90;;;;;;4996345;28;20551;-53
2022/10/12 03:01:33;;;;;;;15.80;5.57;;;6.40;99.90;;;;;;5000650;28;20061;-53
2022/10/12 03:03:58;;;;;;;7.03;4.83;;;6.40;99.90;;;;;;4989786;28;20046;-56
2022/10/12 03:06:24;;;;;;;6.50;4.73;;;6.40;99.90;;;;;;4995444;28;20511;-55
2022/10/12 03:08:49;;;;;;;10.33;5.37;;;6.40;99.90;;;;;;4992431;28;20522;-56
2022/10/12 03:11:15;;;;;;;10.73;5.27;;;6.50;99.90;;;;;;5004660;28;20169;-54
2022/10/12 03:13:40;;;;;;;12.30;6.53;;;6.40;99.90;;;;;;5056449;28;20053;-56
2022/10/12 03:16:08;;;;;;;12.33;5.43;;;6.40;99.90;;;;;;5051446;28;20044;-55
2022/10/12 03:18:34;;;;;;;13.45;6.18;;;6.40;99.90;;;;;;5067696;28;20037;-53
2022/10/12 03:21:00;;;;;;;12.25;5.40;;;6.40;99.90;;;;;;5063215;28;20033;-55
2022/10/12 03:23:25;;;;;;;13.60;6.70;;;6.40;99.90;;;;;;5058728;28;20513;-53
2022/10/12 03:25:51;;;;;;;15.07;5.70;;;6.40;99.90;;;;;;5070434;28;20040;-56
2022/10/12 03:28:17;;;;;;;10.93;5.73;;;6.40;99.90;;;;;;5052706;28;20532;-55
2022/10/12 03:30:43;;;;;;;13.35;5.72;;;6.40;99.90;;;;;;5050121;28;20506;-54
2022/10/12 03:33:09;;;;;;;11.57;6.43;;;6.40;99.90;;;;;;5059264;28;20128;-54
2022/10/12 03:35:35;;;;;;;12.80;6.83;;;6.40;99.90;;;;;;5050083;28;20120;-54
2022/10/12 03:38:01;;;;;;;14.73;5.97;;;6.40;99.90;;;;;;5061388;28;20071;-56
2022/10/12 03:40:26;;;;;;;14.50;6.72;;;6.50;99.90;;;;;;5050822;28;20069;-53
2022/10/12 03:42:52;;;;;;;16.53;7.73;;;6.40;99.90;;;;;;5049876;28;20119;-57
2022/10/12 03:45:17;;;;;;;17.50;7.67;;;6.40;99.90;;;;;;5049472;28;20167;-53
2022/10/12 03:47:43;;;;;;;14.10;7.20;;;6.50;99.90;;;;;;5056486;28;20071;-53
2022/10/12 03:50:08;;;;;;;15.07;7.20;;;6.50;99.90;;;;;;5070102;28;20039;-55
2022/10/12 03:52:34;;;;;;;13.03;7.10;;;6.50;99.90;;;;;;5068368;28;20031;-53
2022/10/12 03:55:00;;;;;;;12.33;6.60;;;6.50;99.90;;;;;;5069798;28;20040;-54
2022/10/12 03:57:25;;;;;;;14.32;5.78;;;6.40;99.90;;;;;;5069479;28;20032;-56
2022/10/12 03:59:51;;;;;;;10.03;5.50;;;6.30;99.90;;;;;;5069577;28;20044;-54
2022/10/12 04:02:16;;;;;;;13.57;7.03;;;6.20;99.90;;;;;;5050965;28;20507;-54
2022/10/12 04:04:42;;;;;;;17.50;7.27;;;6.20;99.90;;;;;;5049788;28;20041;-53
2022/10/12 04:07:08;;;;;;;16.17;7.20;;;6.20;99.90;;;;;;5052562;28;20043;-55
2022/10/12 04:09:33;;;;;;;21.17;7.90;;;6.20;99.90;;;;;;5059001;28;20090;-53
2022/10/12 04:11:59;;;;;;;7.87;7.03;;;6.30;99.90;;;;;;5051507;28;20041;-55
2022/10/12 04:14:24;;;;;;;18.63;8.00;;;6.30;99.90;;;;;;5066443;28;20043;-53
2022/10/12 04:16:52;;;;;;;18.80;7.30;;;6.30;99.90;;;;;;5052764;28;20045;-57
2022/10/12 04:19:18;;;;;;;13.40;7.50;;;6.20;99.90;;;;;;5054208;28;20079;-55
2022/10/12 04:21:44;;;;;;;15.73;7.10;;;6.30;99.90;;;;;;5051046;28;20447;-53
2022/10/12 04:24:09;;;;;;;17.40;7.70;;;6.30;99.90;;;;;;5067065;28;20033;-54
2022/10/12 04:26:35;;;;;;;13.67;7.77;;;6.30;99.90;;;;;;5069074;28;20416;-55
2022/10/12 04:29:00;;;;;;;12.27;7.23;;;6.30;99.90;;;;;;5052861;28;20040;-54
2022/10/12 04:31:26;;;;;;;7.87;4.67;;;6.20;99.90;;;;;;5053209;28;20036;-55
2022/10/12 04:33:55;;;;;;;9.90;5.67;;;6.20;99.90;;;;;;5059187;28;20060;-53
2022/10/12 04:36:24;;;;;;;12.68;4.47;;;6.10;99.90;;;;;;5054701;28;20068;-56
2022/10/12 04:38:49;;;;;;;8.20;5.10;;;6.10;99.90;;;;;;5055843;28;20425;-56
2022/10/12 04:41:15;;;;;;;18.10;6.83;;;6.00;99.90;;;;;;5059240;28;20047;-55
2022/10/12 04:43:41;;;;;;;18.05;7.82;;;6.00;99.90;;;;;;5067743;28;20041;-53
2022/10/12 04:46:06;;;;;;;11.93;7.57;;;6.00;99.90;;;;;;5065488;28;20072;-53
2022/10/12 04:48:32;;;;;;;12.73;7.10;;;6.00;99.90;;;;;;5062289;28;20397;-55
2022/10/12 04:50:57;;;;;;;17.20;8.07;;;6.00;99.90;;;;;;5078655;28;20048;-54
2022/10/12 04:53:23;;;;;;;14.13;8.10;;;6.10;99.90;;;;;;5054389;28;20082;-54
2022/10/12 04:55:48;;;;;;;15.73;7.73;;;6.10;99.90;;;;;;5054990;28;20045;-56
2022/10/12 04:58:14;;;;;;;14.50;8.40;;;6.10;99.90;;;;;;5059733;28;20044;-55
2022/10/12 05:00:40;;;;;;;12.40;7.20;;;6.20;99.90;;;;;;5062414;28;20112;-54
2022/10/12 05:03:05;;;;;;;12.03;6.50;;;6.10;99.90;;;;;;5069561;28;20036;-57
2022/10/12 05:05:33;;;;;;;15.00;7.43;;;6.10;99.90;;;;;;5070440;28;20066;-55
2022/10/12 05:07:59;;;;;;;14.23;7.57;;;6.10;99.90;;;;;;5053835;28;20056;-56
2022/10/12 05:10:24;;;;;;;10.93;7.03;;;6.10;99.90;;;;;;5067822;28;20033;-54
2022/10/12 05:12:50;;;;;;;26.67;8.07;;;6.00;99.90;;;;;;5060469;28;20438;-53
2022/10/12 05:15:16;;;;;;;12.30;6.33;;;6.10;99.90;;;;;;5067569;28;20079;-53
2022/10/12 05:17:41;;;;;;;10.48;6.30;;;6.00;99.90;;;;;;5057334;28;20048;-52
2022/10/12 05:20:08;;;;;;;9.07;6.40;;;6.00;99.90;;;;;;5065531;28;20514;-55
2022/10/12 05:22:33;;;;;;;;;;;6.00;99.90;;;;;;5054194;28;20045;-55
2022/10/12 05:24:58;;;;;;;11.23;6.10;;;6.00;99.90;;;;;;5067929;28;19927;-56
2022/10/12 05:27:24;;;;;;;14.77;6.77;;;6.00;99.90;;;;;;5066186;28;20044;-55
2022/10/12 05:29:50;;;;;;;11.47;5.83;;;6.00;99.90;;;;;;5065306;28;20036;-53
2022/10/12 05:32:16;;;;;;;11.80;5.97;;;6.00;99.90;;;;;;5064518;28;20401;-54
2022/10/12 05:34:42;;;;;;;13.75;7.45;;;6.00;99.90;;;;;;5052041;28;20040;-53
2022/10/12 05:37:08;;;;;;;11.43;5.25;;;6.10;99.90;;;;;;5060199;28;20040;-53
2022/10/12 05:39:35;;;;;;;10.68;7.25;;;6.00;99.90;;;;;;5064498;28;20511;-55
2022/10/12 05:42:01;;;;;;;13.68;7.05;;;6.10;99.90;;;;;;5069075;28;20080;-55
2022/10/12 05:44:26;;;;;;;14.23;6.13;;;6.10;99.90;;;;;;5068053;28;20076;-54
2022/10/12 05:46:52;;;;;;;5.63;5.00;;;6.20;99.90;;;;;;5060143;28;20406;-54
2022/10/12 05:49:17;;;;;;;13.27;4.93;;;6.10;99.90;;;;;;5072027;28;20036;-54
2022/10/12 05:51:43;;;;;;;12.17;6.27;;;6.10;99.90;;;;;;5071927;28;20397;-55
2022/10/12 05:54:08;;;;;;;13.43;6.70;;;6.10;99.90;;;;;;5071656;28;20502;-54
2022/10/12 05:56:34;;;;;;;8.40;5.13;;;6.10;99.90;;;;;;5069398;28;20128;-55
2022/10/12 05:58:59;;;;;;;8.37;4.13;;;6.10;99.90;;;;;;5061665;28;20040;-54
2022/10/12 06:01:25;;;;;;;7.47;4.00;;;6.00;99.90;;;;;;5054605;28;20037;-56
2022/10/12 06:03:53;;;;;;;6.55;4.47;;;5.80;99.90;;;;;;5055157;28;20089;-53
2022/10/12 06:06:19;;;;;;;6.95;4.35;;;5.80;99.90;;;;;;5070595;28;20570;-54
2022/10/12 06:08:44;;;;;;;8.50;4.37;;;5.80;99.90;;;;;;5069057;28;20032;-56
2022/10/12 06:11:10;;;;;;;4.83;4.10;;;5.70;99.90;;;;;;5071269;28;20364;-56
2022/10/12 06:13:35;;;;;;;8.30;5.57;;;5.70;99.90;;;;;;5071578;28;20072;-54
2022/10/12 06:16:01;;;;;;;10.00;4.80;;;5.70;99.90;;;;;;5071953;28;20032;-55
2022/10/12 06:18:26;;;;;;;4.87;4.07;;;5.80;99.90;;;;;;5071738;28;20500;-56
2022/10/12 06:20:53;;;;;;;6.97;3.83;;;5.80;99.90;;;;;;5071823;28;20037;-55
2022/10/12 06:23:20;;;;;;;7.35;3.40;;;5.80;99.90;;;;;;5069860;28;20044;-56
2022/10/12 06:25:47;;;;;;;32.70;4.18;;;5.70;99.90;;;;;;5060025;28;20475;-57
2022/10/12 06:28:14;;;;;;;5.05;2.85;;;5.70;99.90;;;;;;5059281;28;20040;-54
2022/10/12 06:30:39;;;;;;;6.20;4.18;;;5.60;99.90;;;;;;5061502;28;20037;-56
2022/10/12 06:33:05;;;;;;;8.73;4.60;;;5.60;99.90;;;;;;5064714;28;20047;-55
2022/10/12 06:35:31;;;;;;;14.52;5.32;;;5.60;99.90;;;;;;5055763;28;20122;-54
2022/10/12 06:37:57;;;;;;;8.80;4.07;;;5.60;99.90;;;;;;5055925;28;20064;-55
2022/10/12 06:40:23;;;;;;;8.63;5.57;;;5.70;99.90;;;;;;5055283;28;20060;-55
2022/10/12 06:42:49;;;;;;;10.55;5.50;;;5.60;99.90;;;;;;5056359;28;20049;-59
2022/10/12 06:45:15;;;;;;;8.88;4.53;;;5.80;99.90;;;;;;5068422;28;20075;-56
2022/10/12 06:47:41;;;;;;;4.57;4.00;;;6.00;99.90;;;;;;5066403;28;20040;-57
2022/10/12 06:50:08;;;;;;;3.77;3.27;;;6.30;99.90;;;;;;5050589;28;20045;-55
2022/10/12 06:52:34;;;;;;;5.28;3.70;;;6.40;99.90;;;;;;5051979;28;20108;-57
2022/10/12 06:55:01;;;;;;;2.95;2.70;;;6.40;99.90;;;;;;5049386;28;20052;-54
2022/10/12 06:57:27;;;;;;;5.95;3.25;;;6.40;99.90;;;;;;5050901;28;20033;-51
2022/10/12 06:59:52;;;;;;;6.43;4.23;;;6.30;99.90;;;;;;5070705;28;20040;-56
2022/10/12 07:02:18;;;;;;;10.13;5.93;;;6.40;99.90;;;;;;5071006;28;20119;-54
2022/10/12 07:04:47;;;;;;;18.17;7.13;;;6.60;99.90;;;;;;5063097;28;20559;-52
2022/10/12 07:07:13;;;;;;;13.25;7.10;;;7.10;99.90;;;;;;5056667;28;20655;-54
2022/10/12 07:09:38;;;;;;;24.87;8.73;;;7.30;99.90;;;;;;5050774;28;20099;-53
2022/10/12 07:12:04;;;;;;;8.97;5.00;;;7.50;99.90;;;;;;5068117;28;20036;-52
2022/10/12 07:14:29;;;;;;;16.30;7.07;;;7.60;99.90;;;;;;5053073;28;20033;-53
2022/10/12 07:16:55;;;;;;;8.93;6.33;;;7.70;99.90;;;;;;5050612;28;20317;-52
2022/10/12 07:19:21;;;;;;;11.17;6.30;;;7.80;99.90;;;;;;5051595;28;20178;-52
2022/10/12 07:21:46;;;;;;;13.10;6.53;;;7.90;99.90;;;;;;5053067;28;20486;-53
2022/10/12 07:24:12;;;;;;;16.97;5.77;;;8.00;99.90;;;;;;5069543;28;20036;-56
2022/10/12 07:26:37;;;;;;;14.83;7.27;;;8.20;99.90;;;;;;5067531;28;20042;-55
2022/10/12 07:29:03;;;;;;;17.50;6.77;;;8.40;99.90;;;;;;5061050;28;20363;-53
2022/10/12 07:31:28;;;;;;;15.87;6.53;;;8.50;99.90;;;;;;5070311;28;20105;-55
2022/10/12 07:33:54;;;;;;;17.87;7.27;;;8.70;99.90;;;;;;5058962;28;20041;-56
2022/10/12 07:36:20;;;;;;;20.00;7.93;;;8.80;99.90;;;;;;5050235;28;20040;-57
2022/10/12 07:38:47;;;;;;;18.93;7.53;;;8.90;99.90;;;;;;5057229;28;20101;-53
2022/10/12 07:41:13;;;;;;;20.02;7.95;;;9.10;99.90;;;;;;5070639;28;20497;-52
2022/10/12 07:43:39;;;;;;;15.88;7.72;;;9.20;99.90;;;;;;5061030;28;20045;-48
2022/10/12 07:46:05;;;;;;;21.27;7.93;;;9.20;99.90;;;;;;5050467;28;20043;-55
2022/10/12 07:48:31;;;;;;;11.18;6.45;;;9.20;99.90;;;;;;5053594;28;20043;-61
2022/10/12 07:51:06;;;;;;;16.75;8.48;;;9.30;99.90;;;;;;5070080;28;20497;-53
2022/10/12 07:53:33;;;;;;;26.38;11.27;;;9.30;99.90;;;;;;5068036;28;20052;-52
2022/10/12 07:56:04;;;;;;;21.30;10.40;;;9.40;99.90;;;;;;5059731;28;20045;-54
2022/10/12 07:58:30;;;;;;;27.70;10.90;;;9.40;99.90;;;;;;5050025;28;20052;-55
2022/10/12 08:01:02;;;;;;;15.02;9.18;;;9.60;99.90;;;;;;5050087;28;20045;-53
2022/10/12 08:03:27;;;;;;;19.10;8.82;;;9.70;99.90;;;;;;5050157;28;20060;-54
2022/10/12 08:05:53;;;;;;;17.70;8.97;;;9.90;99.90;;;;;;5051666;28;20040;-54
2022/10/12 08:08:18;;;;;;;20.33;6.87;;;10.00;99.90;;;;;;5051559;28;20044;-58
2022/10/12 08:10:44;;;;;;;23.57;8.93;;;10.10;99.90;;;;;;5066990;28;20136;-55
2022/10/12 08:13:09;;;;;;;19.03;6.70;;;10.20;99.90;;;;;;5053796;28;20549;-58
2022/10/12 08:15:35;;;;;;;19.17;6.73;;;10.30;99.90;;;;;;5070809;28;20119;-54
2022/10/12 08:18:00;;;;;;;20.07;6.63;;;10.30;99.90;;;;;;5058320;28;20069;-57
2022/10/12 08:20:26;;;;;;;14.47;6.17;;;10.30;99.90;;;;;;5069358;28;20072;-56
2022/10/12 08:22:52;;;;;;;20.40;6.80;;;10.40;99.90;;;;;;5074027;28;20072;-53
2022/10/12 08:25:18;;;;;;;;;;;10.40;99.90;;;;;;5060052;28;20166;-55
2022/10/12 08:27:44;;;;;;;17.08;6.68;;;10.50;99.90;;;;;;5064595;28;19960;-59
2022/10/12 08:30:10;;;;;;;15.57;7.22;;;10.50;99.90;;;;;;5060764;28;20060;-55
2022/10/12 08:32:35;;;;;;;18.60;7.20;;;10.60;99.90;;;;;;5053348;28;20394;-56
2022/10/12 08:35:01;;;;;;;17.37;6.70;;;10.50;99.90;;;;;;5054233;28;20406;-54
2022/10/12 08:37:28;;;;;;;21.70;8.27;;;10.50;99.90;;;;;;5059398;28;20134;-53
2022/10/12 08:39:54;;;;;;;18.65;6.00;;;10.60;99.90;;;;;;5065343;28;20287;-53
2022/10/12 08:42:34;;;;;;;20.25;6.47;;;10.60;99.90;;;;;;5053438;28;20099;-53
2022/10/12 08:45:30;;;;;;;18.38;7.35;;;10.60;99.90;;;;;;5058947;28;20574;-52
2022/10/12 08:48:04;;;;;;;17.38;6.00;;;10.60;99.90;;;;;;5063925;28;20041;-56
2022/10/12 08:50:38;;;;;;;14.88;5.82;;;10.60;99.90;;;;;;5061986;28;20045;-54
2022/10/12 08:53:14;;;;;;;13.82;7.22;;;10.50;99.90;;;;;;5064329;28;20040;-53
2022/10/12 08:55:43;;;;;;;17.73;7.15;;;10.60;99.90;;;;;;5072915;28;20036;-53
2022/10/12 08:58:19;;;;;;;19.90;8.43;;;10.60;99.90;;;;;;5053372;28;20037;-52
2022/10/12 09:01:22;;;;;;;17.90;7.60;;;10.60;99.90;;;;;;5070122;28;20044;-55
2022/10/12 09:03:50;;;;;;;15.30;7.75;;;10.60;99.90;;;;;;5071730;28;20051;-55
2022/10/12 09:06:24;;;;;;;19.73;8.00;;;10.60;99.90;;;;;;5071807;28;20048;-53
2022/10/12 09:09:17;;;;;;;16.35;7.95;;;10.70;99.90;;;;;;5072394;28;20049;-53
2022/10/12 09:12:13;;;;;;;19.35;7.88;;;10.70;99.90;;;;;;5056785;28;20041;-53
2022/10/12 09:14:41;;;;;;;12.45;6.90;;;10.70;99.90;;;;;;5072034;28;20044;-53
2022/10/12 09:17:30;;;;;;;23.52;8.60;;;10.70;99.90;;;;;;5059793;28;20107;-53
2022/10/12 09:20:05;;;;;;;19.92;9.00;;;10.80;99.90;;;;;;5055525;28;20524;-54
2022/10/12 09:22:33;;;;;;;20.90;6.97;;;10.80;99.90;;;;;;5064465;28;21195;-56
2022/10/12 09:25:01;;;;;;;17.98;6.78;;;10.80;99.90;;;;;;5060736;28;20421;-54
2022/10/12 09:27:30;;;;;;;15.35;7.10;;;10.90;99.90;;;;;;5064447;28;20732;-55
2022/10/12 09:30:02;;;;;;;19.80;8.18;;;10.90;99.90;;;;;;5064430;28;20440;-53
2022/10/12 09:33:00;;;;;;;11.88;8.20;;;10.90;99.90;;;;;;5062808;28;20064;-54
2022/10/12 09:35:26;;;;;;;17.75;7.40;;;11.00;99.90;;;;;;5059209;28;20089;-53
2022/10/12 09:37:52;;;;;;;18.02;7.68;;;11.10;99.90;;;;;;5069155;28;20048;-53
2022/10/12 09:40:26;;;;;;;;;;;11.30;99.90;;;;;;5065923;28;20045;-53
2022/10/12 09:42:53;;;;;;;20.08;7.50;;;11.30;99.90;;;;;;5059595;28;19924;-56
2022/10/12 09:45:21;;;;;;;25.30;7.00;;;11.50;99.90;;;;;;5051435;28;20041;-54
2022/10/12 09:48:08;;;;;;;19.17;7.30;;;11.60;99.90;;;;;;5057249;28;20078;-56
2022/10/12 09:50:42;;;;;;;;;;;11.70;99.90;;;;;;5059747;28;20052;-56
2022/10/12 09:53:14;;;;;;;16.58;7.95;;;11.80;99.90;;;;;;5057814;28;20538;-57
2022/10/12 09:55:39;;;;;;;15.85;6.60;;;11.90;99.90;;;;;;5064862;28;20040;-56
2022/10/12 09:58:18;;;;;;;14.57;6.30;;;12.00;99.90;;;;;;5054586;28;20035;-55
2022/10/12 10:00:43;;;;;;;23.38;6.97;;;12.10;99.90;;;;;;5054381;28;20101;-54
2022/10/12 10:03:23;;;;;;;13.35;6.43;;;12.20;99.90;;;;;;5055608;28;20041;-55
2022/10/12 10:06:01;;;;;;;21.02;6.80;;;12.30;99.90;;;;;;5064725;28;20047;-53
2022/10/12 10:08:27;;;;;;;16.60;5.25;;;12.50;99.90;;;;;;5067462;28;20050;-53
2022/10/12 10:10:58;;;;;;;16.70;5.13;;;12.60;99.90;;;;;;5061320;28;20144;-53
2022/10/12 10:13:28;;;;;;;12.80;5.32;;;12.70;99.90;;;;;;5051736;28;20104;-54
2022/10/12 10:16:08;;;;;;;14.68;5.05;;;12.80;99.90;;;;;;5054221;28;20036;-55
2022/10/12 10:18:38;;;;;;;15.98;6.30;;;12.80;99.90;;;;;;5055358;28;20094;-55
2022/10/12 10:21:07;;;;;;;19.70;5.40;;;13.00;99.90;;;;;;5056673;28;20051;-54
2022/10/12 10:23:41;;;;;;;19.88;5.07;;;13.20;99.90;;;;;;5059276;28;20041;-54
2022/10/12 10:26:12;;;;;;;15.40;5.25;;;13.20;99.90;;;;;;5058390;28;20044;-53
2022/10/12 10:28:40;;;;;;;11.85;4.25;;;13.30;99.90;;;;;;5071411;28;20044;-55
2022/10/12 10:31:16;;;;;;;16.45;5.20;;;13.40;99.90;;;;;;5058169;28;20057;-56
2022/10/12 10:34:09;;;;;;;19.33;4.85;;;13.50;99.90;;;;;;5055578;28;20036;-56
2022/10/12 10:36:55;;;;;;;15.15;3.53;;;13.60;99.90;;;;;;5052602;28;20036;-54
2022/10/12 10:39:47;;;;;;;10.63;3.22;;;13.60;99.90;;;;;;5051013;28;20071;-55
2022/10/12 10:42:33;;;;;;;15.15;4.00;;;13.70;99.90;;;;;;5054583;28;20133;-54
2022/10/12 10:45:31;;;;;;;13.85;4.15;;;13.80;99.90;;;;;;5057760;28;20121;-55
2022/10/12 10:48:20;;;;;;;17.08;4.20;;;13.80;99.90;;;;;;5056255;28;20055;-57
2022/10/12 10:51:00;;;;;;;11.05;3.22;;;13.90;99.90;;;;;;5054060;28;20040;-57
2022/10/12 10:53:43;;;;;;;9.20;3.35;;;14.00;99.90;;;;;;5064116;28;20565;-58
2022/10/12 10:56:27;;;;;;;14.55;3.97;;;14.00;99.90;;;;;;5053228;28;20078;-56
2022/10/12 10:58:56;;;;;;;7.05;3.53;;;14.10;99.90;;;;;;5066486;28;20432;-57
2022/10/12 11:01:30;;;;;;;12.75;3.80;;;14.20;99.90;;;;;;5059279;28;20471;-56
2022/10/12 11:04:06;;;;;;;11.80;3.20;;;14.20;99.90;;;;;;5054047;28;20082;-58
2022/10/12 11:06:38;;;;;;;11.90;3.38;;;14.40;99.90;;;;;;5058894;28;20091;-56
2022/10/12 11:09:10;;;;;;;9.40;3.42;;;14.50;99.90;;;;;;5062772;28;20056;-55
2022/10/12 11:11:38;;;;;;;8.95;2.88;;;14.50;99.90;;;;;;5068333;28;20040;-55
2022/10/12 11:14:20;;;;;;;10.30;3.70;;;14.60;99.90;;;;;;5067935;28;20037;-54
2022/10/12 11:16:50;;;;;;;8.88;3.22;;;14.70;99.90;;;;;;5066662;28;20033;-54
2022/10/12 11:19:43;;;;;;;9.65;3.03;;;14.80;99.90;;;;;;5056091;28;20112;-56
2022/10/12 11:22:22;;;;;;;9.57;2.60;;;14.80;99.60;;;;;;5060868;28;20182;-56
2022/10/12 11:25:13;;;;;;;12.15;2.90;;;14.80;99.30;;;;;;5059275;28;20044;-57
2022/10/12 11:27:40;;;;;;;10.60;2.67;;;14.80;99.20;;;;;;5063011;28;20043;-55
2022/10/12 11:30:14;;;;;;;9.15;2.53;;;14.90;99.40;;;;;;5054864;28;20437;-54
2022/10/12 11:32:44;;;;;;;7.63;2.95;;;14.90;99.30;;;;;;5052449;28;20131;-54
2022/10/12 11:35:27;;;;;;;9.65;2.42;;;14.90;98.80;;;;;;5054436;28;20037;-56
2022/10/12 11:37:59;;;;;;;12.38;2.78;;;15.00;98.90;;;;;;5063125;28;20040;-57
2022/10/12 11:40:58;;;;;;;7.82;2.20;;;15.00;99.00;;;;;;5058357;28;20432;-55
2022/10/12 11:43:28;;;;;;;11.40;2.88;;;15.10;99.10;;;;;;5056618;28;20040;-56
2022/10/12 11:45:58;;;;;;;11.60;3.80;;;15.20;99.10;;;;;;5057493;28;20033;-54
2022/10/12 11:48:30;;;;;;;9.93;2.75;;;15.20;98.30;;;;;;5049502;28;20075;-56
2022/10/12 11:50:57;;;;;;;6.10;2.15;;;15.20;98.30;;;;;;5051520;28;20518;-54
2022/10/12 11:53:33;;;;;;;14.50;2.72;;;15.20;98.40;;;;;;5067583;28;20062;-57
2022/10/12 11:56:23;;;;;;;11.77;2.38;;;15.30;98.00;;;;;;5065466;28;20120;-54
2022/10/12 11:58:53;;;;;;;8.00;2.13;;;15.40;98.10;;;;;;5068205;28;20048;-56
2022/10/12 12:01:37;;;;;;;9.95;2.92;;;15.50;98.30;;;;;;5063732;28;20055;-56
2022/10/12 12:04:11;;;;;;;9.07;2.33;;;15.50;98.30;;;;;;5048900;28;20071;-55
2022/10/12 12:07:01;;;;;;;9.10;2.22;;;15.60;97.60;;;;;;5055028;28;20032;-56
2022/10/12 12:09:34;;;;;;;5.97;2.83;;;15.70;97.70;;;;;;5068537;28;20478;-57
2022/10/12 12:12:20;;;;;;;7.38;2.60;;;15.80;97.40;;;;;;5067932;28;20040;-55
2022/10/12 12:14:51;;;;;;;7.38;2.20;;;15.80;96.80;;;;;;5068369;28;20457;-57
2022/10/12 12:17:17;;;;;;;8.30;2.85;;;15.80;97.10;;;;;;5058161;28;20089;-54
2022/10/12 12:19:43;;;;;;;8.90;2.03;;;15.90;97.30;;;;;;5068137;28;20431;-55
2022/10/12 12:22:28;;;;;;;11.57;3.30;;;15.90;97.00;;;;;;5067719;28;20351;-53
2022/10/12 12:25:13;;;;;;;6.75;2.13;;;15.90;96.30;;;;;;5062008;28;20063;-57
2022/10/12 12:27:54;;;;;;;8.52;1.90;;;15.90;96.30;;;;;;5056935;28;20041;-54
2022/10/12 12:30:39;;;;;;;7.68;2.08;;;16.00;96.30;;;;;;5063983;28;20051;-56
2022/10/12 12:33:20;;;;;;;9.73;2.70;;;16.10;96.90;;;;;;5053562;28;20078;-54
2022/10/12 12:36:03;;;;;;;4.80;2.13;;;16.20;96.70;;;;;;5061903;28;20025;-57
2022/10/12 12:38:34;;;;;;;9.77;2.08;;;16.20;96.60;;;;;;5060155;28;20047;-55
2022/10/12 12:41:13;;;;;;;5.68;1.88;;;16.20;96.90;;;;;;5051205;28;20048;-57
2022/10/12 12:43:47;;;;;;;6.47;2.47;;;16.30;96.90;;;;;;5049254;28;20211;-56
2022/10/12 12:46:14;;;;;;;9.52;2.33;;;16.40;95.90;;;;;;5053640;28;20397;-57
2022/10/12 12:48:46;;;;;;;14.23;3.15;;;16.40;95.40;;;;;;5055564;28;20177;-57
2022/10/12 12:51:22;;;;;;;11.25;3.35;;;16.40;95.50;;;;;;5058213;28;20055;-56
2022/10/12 12:54:12;;;;;;;9.27;2.45;;;16.20;95.00;;;;;;5069262;28;20063;-56
2022/10/12 12:57:11;;;;;;;7.32;2.72;;;16.20;94.50;;;;;;5052977;28;20044;-57
2022/10/12 12:59:58;;;;;;;8.10;2.50;;;16.20;95.20;;;;;;5046399;28;20092;-56
2022/10/12 13:02:47;;;;;;;10.05;2.60;;;16.30;95.60;;;;;;5053010;28;20072;-54
2022/10/12 13:05:49;;;;;;;11.95;2.60;;;16.30;95.30;;;;;;5060621;28;20116;-54
2022/10/12 13:08:38;;;;;;;7.32;2.53;;;16.30;94.70;;;;;;5061475;28;20553;-55
2022/10/12 13:11:35;;;;;;;13.15;2.78;;;16.20;94.50;;;;;;5068973;28;20563;-57